Time;durP1;ratioP1;P1;durP2;ratioP2;P2;SDS_P1;SDS_P2;PMS_P1;PMS_P2;Temp;Humidity;BMP_temperature;BMP_pressure;BME280_temperature;BME280_humidity;BME280_pressure;Samples;Min_cycle;Max_cycle;Signal;HPM_P1;HPM_P2
2022/11/06 00:00:05;;;;;;;4.15;2.10;;;11.00;77.80;;;;;;5134475;27;20027;-72
2022/11/06 00:02:31;;;;;;;4.38;1.70;;;11.00;77.60;;;;;;5134129;27;20042;-71
2022/11/06 00:06:46;;;;;;;4.88;1.90;;;11.00;78.60;;;;;;5134085;27;20057;-72
2022/11/06 00:07:45;;;;;;;6.43;1.90;;;11.00;78.40;;;;;;5134121;27;20117;-72
2022/11/06 00:10:12;;;;;;;5.35;1.98;;;10.90;78.70;;;;;;5134238;27;20069;-72
2022/11/06 00:12:38;;;;;;;6.88;1.90;;;10.90;77.90;;;;;;5134075;27;20105;-72
2022/11/06 00:15:04;;;;;;;3.63;2.00;;;10.90;77.70;;;;;;5133892;27;20031;-72
2022/11/06 00:17:30;;;;;;;4.00;1.85;;;10.90;77.90;;;;;;5133918;27;20515;-71
2022/11/06 00:19:55;;;;;;;6.68;2.05;;;10.90;77.50;;;;;;5133686;27;20027;-71
2022/11/06 00:22:21;;;;;;;3.55;1.73;;;10.90;78.00;;;;;;5133831;27;20032;-70
2022/11/06 00:24:48;;;;;;;8.55;2.67;;;10.90;77.80;;;;;;5134171;27;20033;-71
2022/11/06 00:27:14;;;;;;;4.88;2.00;;;10.90;78.00;;;;;;5134049;27;20027;-70
2022/11/06 00:29:40;;;;;;;4.63;1.77;;;10.80;78.20;;;;;;5133616;27;20038;-72
2022/11/06 00:32:06;;;;;;;3.95;2.05;;;10.80;78.30;;;;;;5133934;27;20031;-72
2022/11/06 00:34:32;;;;;;;3.90;1.70;;;10.80;78.00;;;;;;5133810;27;20485;-71
2022/11/06 00:36:57;;;;;;;4.72;2.00;;;10.80;78.20;;;;;;5133742;27;20067;-71
2022/11/06 00:39:23;;;;;;;3.60;1.63;;;10.80;77.80;;;;;;5133835;27;20542;-71
2022/11/06 00:41:49;;;;;;;5.30;1.70;;;10.80;76.90;;;;;;5133899;27;20054;-72
2022/11/06 00:44:14;;;;;;;4.68;1.95;;;10.80;77.50;;;;;;5133643;27;20169;-71
2022/11/06 00:46:40;;;;;;;5.22;1.80;;;10.80;78.00;;;;;;5133680;27;20062;-71
2022/11/06 00:49:06;;;;;;;4.05;1.80;;;10.80;77.70;;;;;;5133649;27;20105;-70
2022/11/06 00:51:40;;;;;;;3.60;1.70;;;10.80;78.30;;;;;;5133555;27;20114;-72
2022/11/06 00:54:08;;;;;;;6.90;1.85;;;10.80;79.10;;;;;;5133708;27;20501;-71
2022/11/06 00:56:34;;;;;;;4.30;2.00;;;10.80;79.20;;;;;;5133835;27;20384;-71
2022/11/06 00:59:01;;;;;;;2.72;1.88;;;10.80;78.40;;;;;;5133713;27;20031;-70
2022/11/06 01:01:29;;;;;;;6.32;2.28;;;10.80;78.30;;;;;;5133678;27;20087;-71
2022/11/06 01:04:00;;;;;;;6.82;2.10;;;10.80;78.70;;;;;;5133428;27;20496;-72
2022/11/06 01:06:28;;;;;;;8.85;1.92;;;10.80;78.20;;;;;;5136905;27;20508;-70
2022/11/06 01:08:54;;;;;;;6.20;2.28;;;10.80;77.70;;;;;;5137590;27;20039;-72
2022/11/06 01:11:27;;;;;;;6.10;2.30;;;10.80;77.60;;;;;;5137658;27;20039;-71
2022/11/06 01:13:59;;;;;;;3.40;2.15;;;10.80;78.10;;;;;;5137007;27;20405;-71
2022/11/06 01:16:26;;;;;;;5.85;2.25;;;10.80;78.20;;;;;;5137106;27;20038;-71
2022/11/06 01:18:53;;;;;;;4.10;2.10;;;10.80;78.00;;;;;;5137427;27;20084;-72
2022/11/06 01:21:25;;;;;;;4.95;2.08;;;10.70;77.60;;;;;;5137391;27;20039;-69
2022/11/06 01:23:57;;;;;;;3.65;1.90;;;10.70;75.90;;;;;;5137371;27;20076;-71
2022/11/06 01:26:24;;;;;;;10.75;1.90;;;10.70;77.10;;;;;;5137038;27;20037;-72
2022/11/06 01:28:50;;;;;;;6.50;2.03;;;10.70;77.50;;;;;;5136014;27;20035;-72
2022/11/06 01:31:18;;;;;;;4.30;1.73;;;10.70;77.10;;;;;;5137325;27;20031;-71
2022/11/06 01:33:44;;;;;;;5.28;2.20;;;10.70;77.00;;;;;;5137150;27;20485;-71
2022/11/06 01:36:12;;;;;;;7.03;2.28;;;10.60;76.80;;;;;;5136994;27;20609;-71
2022/11/06 01:38:46;;;;;;;4.97;1.80;;;10.60;77.90;;;;;;5137085;27;20035;-72
2022/11/06 01:41:17;;;;;;;4.30;2.22;;;10.50;77.20;;;;;;5136771;27;20109;-71
2022/11/06 01:43:51;;;;;;;8.40;1.95;;;10.50;79.00;;;;;;5136901;27;20073;-72
2022/11/06 01:46:18;;;;;;;4.05;1.80;;;10.50;78.10;;;;;;5136706;27;20053;-70
2022/11/06 01:48:59;;;;;;;3.53;1.80;;;10.50;78.50;;;;;;5136548;27;20035;-70
2022/11/06 01:51:29;;;;;;;6.38;2.85;;;10.50;79.30;;;;;;5136329;27;20408;-72
2022/11/06 01:53:56;;;;;;;5.50;2.38;;;10.50;78.70;;;;;;5136614;27;20039;-72
2022/11/06 01:56:23;;;;;;;3.97;2.08;;;10.50;77.80;;;;;;5136443;27;20019;-70
2022/11/06 01:58:52;;;;;;;6.45;1.90;;;10.50;77.70;;;;;;5134389;27;20091;-72
2022/11/06 02:01:18;;;;;;;5.95;1.77;;;10.50;77.00;;;;;;5133614;27;20038;-71
2022/11/06 02:04:17;;;;;;;2.33;1.50;;;10.50;77.90;;;;;;5133772;27;20031;-70
2022/11/06 02:06:45;;;;;;;5.00;1.42;;;10.50;77.50;;;;;;5136495;27;20381;-71
2022/11/06 02:09:11;;;;;;;3.58;1.67;;;10.50;77.50;;;;;;5136189;27;20031;-71
2022/11/06 02:11:39;;;;;;;7.85;1.55;;;10.50;77.00;;;;;;5136429;27;20038;-72
2022/11/06 02:14:24;;;;;;;3.88;1.42;;;10.50;76.90;;;;;;5135839;27;20043;-71
2022/11/06 02:17:08;;;;;;;3.35;1.00;;;10.50;77.10;;;;;;5135547;27;20035;-72
2022/11/06 02:20:01;;;;;;;2.13;1.30;;;10.50;76.40;;;;;;5136167;27;20125;-72
2022/11/06 02:22:44;;;;;;;3.85;1.40;;;10.60;77.40;;;;;;5136064;27;20106;-71
2022/11/06 02:25:15;;;;;;;;;;;10.50;77.50;;;;;;5136459;27;20027;-72
2022/11/06 02:27:47;;;;;;;3.25;1.35;;;10.50;77.60;;;;;;5135766;27;19960;-72
2022/11/06 02:30:15;;;;;;;2.90;1.30;;;10.50;77.70;;;;;;5135955;27;20027;-72
2022/11/06 02:32:47;;;;;;;2.55;1.20;;;10.50;77.70;;;;;;5135974;27;20047;-72
2022/11/06 02:35:22;;;;;;;2.72;1.30;;;10.50;77.70;;;;;;5135584;27;20028;-71
2022/11/06 02:37:52;;;;;;;3.03;1.40;;;10.50;78.60;;;;;;5135876;27;20085;-71
2022/11/06 02:40:22;;;;;;;2.77;1.57;;;10.40;78.10;;;;;;5135659;27;20039;-70
2022/11/06 02:42:52;;;;;;;4.35;1.15;;;10.40;77.80;;;;;;5135636;27;20514;-71
2022/11/06 02:45:20;;;;;;;2.05;1.20;;;10.40;77.50;;;;;;5135641;27;20393;-71
2022/11/06 02:47:48;;;;;;;2.35;1.45;;;10.40;77.50;;;;;;5135853;27;20045;-72
2022/11/06 02:50:24;;;;;;;4.50;1.60;;;10.30;77.30;;;;;;5135766;27;20546;-72
2022/11/06 02:52:56;;;;;;;4.03;1.40;;;10.30;78.00;;;;;;5135065;27;20055;-72
2022/11/06 02:55:36;;;;;;;2.10;1.20;;;10.30;78.70;;;;;;5135318;27;20106;-71
2022/11/06 02:58:26;;;;;;;2.05;1.05;;;10.30;77.40;;;;;;5135404;27;20055;-71
2022/11/06 03:00:59;;;;;;;3.58;1.30;;;10.30;78.50;;;;;;5135359;27;20035;-71
2022/11/06 03:03:31;;;;;;;2.00;1.00;;;10.30;78.10;;;;;;5134850;27;20393;-72
2022/11/06 03:06:06;;;;;;;3.40;1.23;;;10.30;78.70;;;;;;5135368;27;20392;-71
2022/11/06 03:08:40;;;;;;;2.17;1.30;;;10.30;77.90;;;;;;5135233;27;20093;-71
2022/11/06 03:11:15;;;;;;;3.58;1.40;;;10.30;78.00;;;;;;5135058;27;20031;-72
2022/11/06 03:14:20;;;;;;;3.08;1.42;;;10.30;77.80;;;;;;5134955;27;20107;-72
2022/11/06 03:16:57;;;;;;;1.80;1.23;;;10.20;78.60;;;;;;5134255;27;20050;-72
2022/11/06 03:19:28;;;;;;;5.47;1.60;;;10.20;78.30;;;;;;5134802;27;20446;-72
2022/11/06 03:22:14;;;;;;;2.42;1.20;;;10.20;78.90;;;;;;5135114;27;20449;-72
2022/11/06 03:24:54;;;;;;;2.17;1.13;;;10.20;79.40;;;;;;5135040;27;20036;-72
2022/11/06 03:27:33;;;;;;;2.03;1.23;;;10.10;79.30;;;;;;5134042;27;20031;-72
2022/11/06 03:30:08;;;;;;;3.58;1.77;;;10.10;78.90;;;;;;5134598;27;20038;-72
2022/11/06 03:32:47;;;;;;;2.03;1.33;;;10.10;79.70;;;;;;5134747;27;20110;-72
2022/11/06 03:35:33;;;;;;;2.35;1.30;;;10.00;79.40;;;;;;5134786;27;20035;-72
2022/11/06 03:38:06;;;;;;;2.03;1.30;;;10.00;79.70;;;;;;5134541;27;20035;-70
2022/11/06 03:40:37;;;;;;;1.95;1.17;;;10.00;80.90;;;;;;5134690;27;20039;-71
2022/11/06 03:43:06;;;;;;;4.47;1.98;;;10.00;80.50;;;;;;5134637;27;20033;-72
2022/11/06 03:45:33;;;;;;;6.80;1.52;;;9.90;80.30;;;;;;5134892;27;20035;-71
2022/11/06 03:48:10;;;;;;;2.83;1.43;;;9.90;80.10;;;;;;5134274;27;20541;-70
2022/11/06 03:51:09;;;;;;;3.03;1.40;;;9.80;79.40;;;;;;5134210;27;20039;-71
2022/11/06 03:53:55;;;;;;;4.37;1.37;;;9.80;79.60;;;;;;5134526;27;20047;-71
2022/11/06 03:56:48;;;;;;;2.00;1.20;;;9.80;80.60;;;;;;5134501;27;20030;-71
2022/11/06 03:59:18;;;;;;;1.65;1.20;;;9.80;81.20;;;;;;5123794;27;20027;-72
2022/11/06 04:01:46;;;;;;;2.88;1.65;;;9.80;81.30;;;;;;5133983;27;20067;-70
2022/11/06 04:04:25;;;;;;;2.73;1.27;;;9.70;80.90;;;;;;5133930;27;20039;-72
2022/11/06 04:07:04;;;;;;;7.10;1.87;;;9.80;81.70;;;;;;5133958;27;20023;-71
2022/11/06 04:15:11;;;;;;;6.63;3.50;;;9.70;81.70;;;;;;5134292;27;20550;-71
2022/11/06 04:17:39;;;;;;;5.50;1.40;;;9.70;82.30;;;;;;5134005;27;20055;-71
2022/11/06 04:20:08;;;;;;;3.70;1.27;;;9.70;81.70;;;;;;5134120;27;20031;-71
2022/11/06 04:22:45;;;;;;;2.43;1.43;;;9.70;81.70;;;;;;5133892;27;20515;-72
2022/11/06 04:28:33;;;;;;;3.10;1.25;;;9.70;82.20;;;;;;5133932;28;20034;-70
2022/11/06 04:31:16;;;;;;;3.03;1.30;;;9.70;82.10;;;;;;5133947;27;20441;-71
2022/11/06 04:33:58;;;;;;;3.97;1.52;;;9.60;81.80;;;;;;5134150;27;20051;-70
2022/11/06 04:36:39;;;;;;;4.97;1.30;;;9.60;81.30;;;;;;5133826;27;20043;-71
2022/11/06 04:39:12;;;;;;;1.97;1.10;;;9.50;81.00;;;;;;5135173;27;20089;-71
2022/11/06 04:41:44;;;;;;;2.97;1.33;;;9.60;81.10;;;;;;5138021;27;20024;-71
2022/11/06 04:44:22;;;;;;;;;;;9.50;81.20;;;;;;5138084;27;20043;-69
2022/11/06 04:46:59;;;;;;;3.23;1.27;;;9.50;81.00;;;;;;5137690;27;19903;-71
2022/11/06 04:49:28;;;;;;;2.17;1.13;;;9.50;82.30;;;;;;5137741;27;20079;-71
2022/11/06 04:51:55;;;;;;;2.20;1.10;;;9.50;82.60;;;;;;5137455;27;20501;-71
2022/11/06 04:54:21;;;;;;;2.60;1.20;;;9.60;82.00;;;;;;5137460;27;20043;-70
2022/11/06 04:56:47;;;;;;;2.57;1.30;;;9.50;81.90;;;;;;5137446;27;20118;-71
2022/11/06 04:59:17;;;;;;;4.63;1.20;;;9.50;82.20;;;;;;5137593;27;20110;-71
2022/11/06 05:01:43;;;;;;;2.53;1.10;;;9.50;82.00;;;;;;5137689;27;20059;-70
2022/11/06 05:04:10;;;;;;;4.07;1.30;;;9.50;82.30;;;;;;5137669;27;20035;-71
2022/11/06 05:06:36;;;;;;;4.07;1.33;;;9.50;81.80;;;;;;5137510;27;20027;-70
2022/11/06 05:09:02;;;;;;;1.27;1.07;;;9.50;82.80;;;;;;5137583;27;20031;-71
2022/11/06 05:11:28;;;;;;;3.57;1.20;;;9.50;82.00;;;;;;5137502;27;20031;-65
2022/11/06 05:13:53;;;;;;;3.10;1.30;;;9.50;82.10;;;;;;5137002;27;20480;-72
2022/11/06 05:16:19;;;;;;;3.70;1.53;;;9.50;82.20;;;;;;5137200;27;20102;-70
2022/11/06 05:18:45;;;;;;;1.73;1.20;;;9.50;82.40;;;;;;5137254;27;20039;-71
2022/11/06 05:24:08;;;;;;;3.07;1.13;;;9.40;82.60;;;;;;5124618;27;20062;-71
2022/11/06 05:26:34;;;;;;;2.40;1.30;;;9.50;81.80;;;;;;5137216;27;20123;-68
2022/11/06 05:29:00;;;;;;;2.33;1.20;;;9.50;82.80;;;;;;5137097;27;20039;-71
2022/11/06 05:31:26;;;;;;;3.50;1.23;;;9.40;83.00;;;;;;5137053;27;20038;-70
2022/11/06 05:33:53;;;;;;;1.70;1.00;;;9.50;82.10;;;;;;5137205;27;20393;-68
2022/11/06 05:36:19;;;;;;;1.50;1.00;;;9.50;82.00;;;;;;5137073;27;20032;-71
2022/11/06 05:38:44;;;;;;;2.13;1.33;;;9.40;81.60;;;;;;5137021;27;20035;-70
2022/11/06 05:41:10;;;;;;;2.80;1.30;;;9.40;82.10;;;;;;5136956;27;20469;-71
2022/11/06 05:43:36;;;;;;;2.57;1.10;;;9.40;82.60;;;;;;5136752;27;20384;-72
2022/11/06 05:46:02;;;;;;;2.00;1.20;;;9.40;81.90;;;;;;5136690;27;20035;-71
2022/11/06 05:48:28;;;;;;;2.80;1.30;;;9.30;81.50;;;;;;5136920;27;20035;-71
2022/11/06 05:51:03;;;;;;;1.90;1.23;;;9.30;82.20;;;;;;5135830;27;20446;-71
2022/11/06 05:53:30;;;;;;;3.83;0.93;;;9.30;83.20;;;;;;5136647;27;20058;-71
2022/11/06 05:55:56;;;;;;;2.23;1.30;;;9.30;82.40;;;;;;5136367;27;20038;-70
2022/11/06 05:58:21;;;;;;;2.87;1.70;;;9.30;82.90;;;;;;5136510;27;20035;-71
2022/11/06 06:00:47;;;;;;;2.50;1.33;;;9.20;82.60;;;;;;5136637;27;20083;-71
2022/11/06 06:03:13;;;;;;;2.07;1.13;;;9.20;82.00;;;;;;5136465;27;20531;-72
2022/11/06 06:05:39;;;;;;;6.00;1.50;;;9.20;82.40;;;;;;5136316;27;20401;-71
2022/11/06 06:08:04;;;;;;;3.43;1.30;;;9.20;82.90;;;;;;5129286;27;20032;-72
2022/11/06 06:10:30;;;;;;;3.13;1.20;;;9.20;83.10;;;;;;5115863;28;20028;-70
2022/11/06 06:12:56;;;;;;;6.70;1.43;;;9.20;83.60;;;;;;5115668;28;20493;-71
2022/11/06 06:15:21;;;;;;;2.33;1.13;;;9.20;83.60;;;;;;5115436;28;20063;-72
2022/11/06 06:17:47;;;;;;;5.40;1.40;;;9.20;84.00;;;;;;5115683;28;20396;-71
2022/11/06 06:20:13;;;;;;;3.03;1.00;;;9.20;84.30;;;;;;5115379;28;20077;-71
2022/11/06 06:22:39;;;;;;;2.70;1.33;;;9.20;84.60;;;;;;5115190;28;20033;-72
2022/11/06 06:25:05;;;;;;;2.00;1.37;;;9.20;85.00;;;;;;5115496;28;20432;-71
2022/11/06 06:27:31;;;;;;;2.90;1.50;;;9.20;84.20;;;;;;5115314;28;20077;-71
2022/11/06 06:29:56;;;;;;;3.27;1.50;;;9.30;83.90;;;;;;5115223;28;20497;-66
2022/11/06 06:32:22;;;;;;;4.03;2.43;;;9.20;84.30;;;;;;5115183;28;20041;-71
2022/11/06 06:34:48;;;;;;;5.60;2.67;;;9.30;84.30;;;;;;5115091;28;20040;-71
2022/11/06 06:37:14;;;;;;;6.67;2.67;;;9.30;83.50;;;;;;5115013;28;20039;-71
2022/11/06 06:39:39;;;;;;;8.13;3.90;;;9.30;83.60;;;;;;5115183;28;20036;-71
2022/11/06 06:42:05;;;;;;;8.57;4.23;;;9.30;83.90;;;;;;5115436;28;20088;-71
2022/11/06 06:44:31;;;;;;;9.00;4.80;;;9.40;84.20;;;;;;5115433;28;20187;-70
2022/11/06 06:46:56;;;;;;;7.13;4.20;;;9.40;84.80;;;;;;5115016;28;20031;-70
2022/11/06 06:49:22;;;;;;;10.10;4.43;;;9.40;84.10;;;;;;5115074;28;20134;-71
2022/11/06 06:51:48;;;;;;;6.73;3.77;;;9.50;84.10;;;;;;5114830;28;20425;-71
2022/11/06 06:54:14;;;;;;;3.60;2.10;;;9.50;83.90;;;;;;5114729;28;20040;-71
2022/11/06 06:56:40;;;;;;;3.13;1.97;;;9.50;83.10;;;;;;5114788;28;20441;-71
2022/11/06 06:59:06;;;;;;;2.23;1.47;;;9.60;83.60;;;;;;5114528;28;20045;-70
2022/11/06 07:01:32;;;;;;;2.20;1.30;;;9.60;84.00;;;;;;5114668;28;20060;-70
2022/11/06 07:03:58;;;;;;;1.90;1.20;;;9.70;84.30;;;;;;5113672;28;20040;-69
2022/11/06 07:06:24;;;;;;;2.83;1.30;;;9.80;84.40;;;;;;5114185;28;20031;-70
2022/11/06 07:08:55;;;;;;;3.03;1.50;;;9.90;84.00;;;;;;5114153;28;20443;-69
2022/11/06 07:11:20;;;;;;;2.70;1.47;;;9.90;83.30;;;;;;5114493;27;20115;-70
2022/11/06 07:13:46;;;;;;;4.13;1.50;;;10.00;83.30;;;;;;5113927;28;20123;-69
2022/11/06 07:16:12;;;;;;;1.67;1.38;;;10.10;82.50;;;;;;5114105;28;20031;-70
2022/11/06 07:18:39;;;;;;;3.10;1.43;;;10.20;82.50;;;;;;5114632;28;20147;-70
2022/11/06 07:21:10;;;;;;;2.67;1.50;;;10.20;82.20;;;;;;5114390;28;20036;-70
2022/11/06 07:23:36;;;;;;;2.83;1.50;;;10.30;82.10;;;;;;5114716;28;20070;-70
2022/11/06 07:26:03;;;;;;;2.95;1.60;;;10.40;82.00;;;;;;5114229;28;20032;-70
2022/11/06 07:28:30;;;;;;;3.97;1.83;;;10.50;81.60;;;;;;5111499;28;20067;-69
2022/11/06 07:31:00;;;;;;;3.08;1.60;;;10.50;81.20;;;;;;5113594;28;20027;-70
2022/11/06 07:33:26;;;;;;;2.08;1.50;;;10.60;81.10;;;;;;5113534;28;20035;-69
2022/11/06 07:35:52;;;;;;;4.45;1.67;;;10.70;80.90;;;;;;5114191;28;20039;-70
2022/11/06 07:38:17;;;;;;;2.78;1.48;;;10.80;80.60;;;;;;5114240;28;20507;-70
2022/11/06 07:40:43;;;;;;;2.72;1.80;;;10.80;80.20;;;;;;5114234;28;20092;-71
2022/11/06 07:43:10;;;;;;;7.13;1.88;;;10.90;80.10;;;;;;5114458;28;20050;-68
2022/11/06 07:45:37;;;;;;;2.70;1.85;;;11.00;78.90;;;;;;5114140;28;20030;-71
2022/11/06 07:48:03;;;;;;;2.63;1.90;;;11.10;78.70;;;;;;5113931;28;20385;-71
2022/11/06 07:50:29;;;;;;;3.97;1.33;;;11.10;78.80;;;;;;5113839;28;20043;-68
2022/11/06 07:52:55;;;;;;;1.63;1.30;;;11.20;78.00;;;;;;5113882;28;20119;-70
2022/11/06 07:55:21;;;;;;;1.38;1.10;;;11.30;77.50;;;;;;5113544;28;20047;-71
2022/11/06 07:57:46;;;;;;;1.30;1.00;;;11.30;77.40;;;;;;5113641;28;20028;-71
2022/11/06 08:00:13;;;;;;;1.55;1.10;;;11.40;76.80;;;;;;5113846;28;20032;-70
2022/11/06 08:02:40;;;;;;;1.92;1.10;;;11.50;75.90;;;;;;5113612;28;20035;-69
2022/11/06 08:05:06;;;;;;;1.52;1.00;;;11.50;75.50;;;;;;5113996;28;20032;-70
2022/11/06 08:07:31;;;;;;;2.28;1.40;;;11.60;75.00;;;;;;5113754;28;20031;-70
2022/11/06 08:09:57;;;;;;;2.83;1.20;;;11.60;75.00;;;;;;5113781;28;20032;-70
2022/11/06 08:12:23;;;;;;;2.00;1.08;;;11.70;75.60;;;;;;5113600;28;20043;-70
2022/11/06 08:14:48;;;;;;;1.60;0.98;;;11.80;75.10;;;;;;5113343;28;20054;-69
2022/11/06 08:17:14;;;;;;;3.72;1.27;;;11.80;74.80;;;;;;5113437;28;20473;-71
2022/11/06 08:19:40;;;;;;;2.15;1.00;;;11.90;74.50;;;;;;5113512;28;20382;-70
2022/11/06 08:22:05;;;;;;;2.05;1.05;;;11.90;74.30;;;;;;5113602;28;20086;-70
2022/11/06 08:24:31;;;;;;;2.90;0.98;;;12.00;74.40;;;;;;5113302;28;20385;-70
2022/11/06 08:26:57;;;;;;;1.55;0.95;;;12.10;73.20;;;;;;5113550;28;20405;-70
2022/11/06 08:29:23;;;;;;;1.33;1.02;;;12.10;72.20;;;;;;5113390;28;20120;-71
2022/11/06 08:31:49;;;;;;;2.22;1.10;;;12.20;72.70;;;;;;5113321;28;20070;-71
2022/11/06 08:34:14;;;;;;;1.35;1.10;;;12.20;72.60;;;;;;5113318;28;20036;-71
2022/11/06 08:36:44;;;;;;;2.20;1.30;;;12.30;72.50;;;;;;5113661;28;20075;-71
2022/11/06 08:39:11;;;;;;;3.58;1.10;;;12.30;72.00;;;;;;5113395;28;20096;-70
2022/11/06 08:41:38;;;;;;;1.40;1.00;;;12.40;71.70;;;;;;5113467;28;20430;-71
2022/11/06 08:44:04;;;;;;;3.33;1.08;;;12.40;71.20;;;;;;5113149;28;20036;-70
2022/11/06 08:46:29;;;;;;;1.83;1.00;;;12.40;71.80;;;;;;5113378;28;20380;-69
2022/11/06 08:48:55;;;;;;;2.33;1.02;;;12.50;71.80;;;;;;5113379;28;20552;-71
2022/11/06 08:51:21;;;;;;;1.27;0.90;;;12.60;72.10;;;;;;5113110;28;20381;-71
2022/11/06 08:53:46;;;;;;;2.63;1.00;;;12.70;71.00;;;;;;5111854;28;20528;-70
2022/11/06 08:56:13;;;;;;;1.65;0.85;;;12.80;70.20;;;;;;5113239;28;20114;-70
2022/11/06 08:58:39;;;;;;;2.08;0.95;;;12.80;69.70;;;;;;5113123;28;20067;-70
2022/11/06 09:01:04;;;;;;;2.92;0.85;;;12.90;69.30;;;;;;5112983;28;20505;-70
2022/11/06 09:03:30;;;;;;;1.65;0.80;;;13.00;70.40;;;;;;5112814;28;20036;-71
2022/11/06 09:05:56;;;;;;;1.02;0.85;;;13.10;70.10;;;;;;5112951;28;20032;-70
2022/11/06 09:08:23;;;;;;;1.15;0.90;;;13.10;69.20;;;;;;5113079;28;20477;-70
2022/11/06 09:10:49;;;;;;;1.88;0.70;;;13.20;67.40;;;;;;5113258;28;20039;-71
2022/11/06 09:13:15;;;;;;;5.97;1.20;;;13.30;66.20;;;;;;5113064;28;20437;-69
2022/11/06 09:15:41;;;;;;;1.88;1.10;;;13.30;66.90;;;;;;5112890;28;20130;-71
2022/11/06 09:18:07;;;;;;;3.13;0.98;;;13.40;67.90;;;;;;5112893;28;20110;-70
2022/11/06 09:20:33;;;;;;;1.08;0.80;;;13.50;67.50;;;;;;5112810;28;20032;-70
2022/11/06 09:23:05;;;;;;;4.00;0.98;;;13.50;67.40;;;;;;5112923;28;20039;-70
2022/11/06 09:25:31;;;;;;;1.35;0.75;;;13.60;66.70;;;;;;5113091;28;20615;-71
2022/11/06 09:27:56;;;;;;;1.42;0.80;;;13.60;66.50;;;;;;5116563;28;20028;-70
2022/11/06 09:30:23;;;;;;;1.40;0.80;;;13.70;65.30;;;;;;5116629;28;20473;-71
2022/11/06 09:32:51;;;;;;;1.08;0.75;;;13.80;65.70;;;;;;5115237;28;20163;-71
2022/11/06 09:35:18;;;;;;;2.25;0.90;;;13.90;66.10;;;;;;5113925;28;20063;-71
2022/11/06 09:37:44;;;;;;;1.10;0.70;;;13.90;65.60;;;;;;5114242;28;20040;-71
2022/11/06 09:40:50;;;;;;;1.80;0.80;;;14.00;65.50;;;;;;5116479;28;20131;-71
2022/11/06 09:43:46;;;;;;;1.10;0.70;;;14.10;66.10;;;;;;5095474;28;20432;-70
2022/11/06 09:46:18;;;;;;;2.08;0.85;;;14.10;65.40;;;;;;5116521;28;20055;-71
2022/11/06 09:48:49;;;;;;;2.73;0.90;;;14.20;64.30;;;;;;5116360;28;20028;-70
2022/11/06 09:51:32;;;;;;;1.23;0.80;;;14.20;63.10;;;;;;5116255;28;20632;-72
2022/11/06 09:54:04;;;;;;;1.10;0.80;;;14.30;64.20;;;;;;5116287;28;20043;-70
2022/11/06 09:56:35;;;;;;;1.30;0.60;;;14.30;64.10;;;;;;5116292;28;20032;-71
2022/11/06 09:59:05;;;;;;;1.33;0.80;;;14.40;63.90;;;;;;5113584;28;20031;-71
2022/11/06 10:01:56;;;;;;;1.40;0.95;;;14.40;62.50;;;;;;5113187;28;20043;-71
2022/11/06 10:04:33;;;;;;;1.83;0.80;;;14.50;63.00;;;;;;5113903;27;20558;-71
2022/11/06 10:06:59;;;;;;;1.88;0.90;;;14.60;62.10;;;;;;5115782;28;20042;-71
2022/11/06 10:09:24;;;;;;;1.00;0.70;;;14.60;60.70;;;;;;5115916;28;20032;-70
2022/11/06 10:12:08;;;;;;;4.10;0.70;;;14.60;60.80;;;;;;5115817;28;20473;-71
2022/11/06 10:14:43;;;;;;;1.20;0.57;;;14.70;60.50;;;;;;5115485;28;20035;-71
2022/11/06 10:17:20;;;;;;;1.17;0.70;;;14.70;62.00;;;;;;5115785;28;20031;-70
2022/11/06 10:20:02;;;;;;;1.10;0.55;;;14.80;62.40;;;;;;5115611;28;20181;-71
2022/11/06 10:22:38;;;;;;;1.77;0.70;;;14.90;61.60;;;;;;5115220;28;20063;-72
2022/11/06 10:25:20;;;;;;;1.55;0.75;;;14.90;61.00;;;;;;5115513;28;20041;-71
2022/11/06 10:28:09;;;;;;;1.10;0.60;;;15.10;60.10;;;;;;5115258;28;20028;-71
2022/11/06 10:31:13;;;;;;;3.75;0.60;;;15.10;58.40;;;;;;5115413;28;20115;-71
2022/11/06 10:34:02;;;;;;;2.03;0.63;;;15.20;60.30;;;;;;5115193;28;20039;-71
2022/11/06 10:37:04;;;;;;;1.48;0.60;;;15.30;59.90;;;;;;5115227;28;20035;-71
2022/11/06 10:39:33;;;;;;;2.75;0.82;;;15.40;59.10;;;;;;5079674;28;20041;-72
2022/11/06 10:42:05;;;;;;;1.30;0.60;;;15.40;59.50;;;;;;5115158;28;20036;-71
2022/11/06 10:44:55;;;;;;;2.77;0.80;;;15.50;59.90;;;;;;5115499;28;20396;-71
2022/11/06 10:47:34;;;;;;;0.93;0.68;;;15.60;59.50;;;;;;5115450;28;20039;-71
2022/11/06 10:50:03;;;;;;;0.82;0.63;;;15.70;58.50;;;;;;5115259;28;20063;-71
2022/11/06 10:53:00;;;;;;;1.00;0.60;;;15.70;58.10;;;;;;5115021;28;20043;-70
2022/11/06 10:55:41;;;;;;;1.50;0.68;;;15.80;58.10;;;;;;5115164;28;20136;-71
2022/11/06 10:58:08;;;;;;;1.13;0.60;;;15.80;56.90;;;;;;5115197;28;20035;-70
2022/11/06 11:00:34;;;;;;;1.75;0.70;;;15.90;57.10;;;;;;5115068;28;20028;-71
2022/11/06 11:03:03;;;;;;;0.85;0.57;;;16.00;56.50;;;;;;5115158;28;20367;-71
2022/11/06 11:05:38;;;;;;;0.70;0.50;;;16.00;55.00;;;;;;5114837;28;20028;-71
2022/11/06 11:08:04;;;;;;;1.30;0.70;;;16.00;55.40;;;;;;5115293;28;20036;-70
2022/11/06 11:10:35;;;;;;;1.98;0.70;;;16.00;54.30;;;;;;5114649;28;20546;-71
2022/11/06 11:13:03;;;;;;;0.88;0.50;;;16.10;54.50;;;;;;5114712;27;20488;-69
2022/11/06 11:15:32;;;;;;;1.23;0.73;;;16.10;54.80;;;;;;5114620;28;20118;-70
2022/11/06 11:18:30;;;;;;;1.42;0.50;;;16.20;54.20;;;;;;5114610;28;20045;-70
2022/11/06 11:21:18;;;;;;;1.05;0.50;;;16.20;54.30;;;;;;5114714;28;20394;-71
2022/11/06 11:23:46;;;;;;;1.48;0.63;;;16.30;54.20;;;;;;5114750;28;20092;-72
2022/11/06 11:26:12;;;;;;;1.52;0.73;;;16.30;52.70;;;;;;5114612;28;20027;-71
2022/11/06 11:28:39;;;;;;;1.52;1.17;;;16.40;52.40;;;;;;5114508;28;20040;-71
2022/11/06 11:31:11;;;;;;;1.02;0.55;;;16.30;53.20;;;;;;5114216;27;20615;-71
2022/11/06 11:33:39;;;;;;;0.82;0.40;;;16.40;53.20;;;;;;5114315;28;20096;-72
2022/11/06 11:36:07;;;;;;;1.88;0.50;;;16.50;52.60;;;;;;5114192;28;20558;-71
2022/11/06 11:38:39;;;;;;;1.40;0.70;;;16.50;53.00;;;;;;5114064;28;20044;-71
2022/11/06 11:41:10;;;;;;;1.17;0.60;;;16.60;52.50;;;;;;5114439;28;20039;-72
2022/11/06 11:43:36;;;;;;;2.10;0.53;;;16.70;51.50;;;;;;5114370;28;20043;-72
2022/11/06 11:46:08;;;;;;;0.90;0.55;;;16.70;51.60;;;;;;5114315;28;20027;-70
2022/11/06 11:48:55;;;;;;;0.98;0.57;;;16.80;52.50;;;;;;5113777;28;20028;-71
2022/11/06 11:51:26;;;;;;;1.67;0.55;;;16.80;51.90;;;;;;5113985;28;20040;-71
2022/11/06 11:53:59;;;;;;;0.93;0.60;;;16.90;50.70;;;;;;5113626;28;20557;-71
2022/11/06 11:56:27;;;;;;;1.33;0.60;;;16.90;50.40;;;;;;5114055;28;20510;-72
2022/11/06 11:58:56;;;;;;;1.35;0.50;;;16.90;50.10;;;;;;5111581;28;20383;-71
2022/11/06 12:01:51;;;;;;;0.90;0.60;;;16.90;49.30;;;;;;5111721;28;20496;-71
2022/11/06 12:04:20;;;;;;;1.10;0.50;;;17.00;49.90;;;;;;5104908;28;20043;-71
2022/11/06 12:07:02;;;;;;;0.60;0.50;;;17.00;50.20;;;;;;5113961;28;20043;-71
2022/11/06 12:09:31;;;;;;;2.58;0.50;;;17.00;49.70;;;;;;5113722;28;20067;-71
2022/11/06 12:11:59;;;;;;;1.05;0.60;;;17.00;49.10;;;;;;5114022;28;20127;-70
2022/11/06 12:14:28;;;;;;;1.00;0.50;;;17.00;48.40;;;;;;5113660;28;20083;-71
2022/11/06 12:17:02;;;;;;;1.75;0.57;;;17.10;48.60;;;;;;5113488;28;20035;-70
2022/11/06 12:19:32;;;;;;;1.30;0.60;;;17.10;48.40;;;;;;5113741;28;20039;-71
2022/11/06 12:22:02;;;;;;;1.13;0.40;;;17.10;48.60;;;;;;5113698;28;20031;-69
2022/11/06 12:24:50;;;;;;;0.77;0.40;;;17.10;48.60;;;;;;5110569;28;20496;-71
2022/11/06 12:27:31;;;;;;;2.08;0.52;;;17.10;48.00;;;;;;5110690;28;20043;-71
2022/11/06 12:30:09;;;;;;;1.73;0.43;;;17.10;46.50;;;;;;5112104;28;20027;-71
2022/11/06 12:32:57;;;;;;;0.40;0.35;;;17.10;47.30;;;;;;5113490;28;20281;-71
2022/11/06 12:35:28;;;;;;;1.52;0.77;;;17.10;47.20;;;;;;5113366;28;20039;-70
2022/11/06 12:38:18;;;;;;;2.00;0.65;;;17.10;47.30;;;;;;5113178;28;20396;-69
2022/11/06 12:40:54;;;;;;;0.63;0.40;;;17.10;47.20;;;;;;5113443;28;20027;-68
2022/11/06 12:43:24;;;;;;;1.88;0.50;;;17.10;47.10;;;;;;5113347;28;20059;-71
2022/11/06 12:46:07;;;;;;;1.08;0.47;;;17.10;46.40;;;;;;5112895;28;20028;-70
2022/11/06 12:48:53;;;;;;;1.70;0.40;;;17.10;46.50;;;;;;5113151;28;20043;-71
2022/11/06 12:51:47;;;;;;;1.13;0.40;;;17.00;46.00;;;;;;5112706;28;20040;-71
2022/11/06 12:54:50;;;;;;;1.20;0.60;;;17.00;46.40;;;;;;5112772;28;20050;-69
2022/11/06 12:57:37;;;;;;;0.80;0.47;;;17.00;46.80;;;;;;5103846;28;20040;-71
2022/11/06 13:00:17;;;;;;;1.30;0.55;;;17.00;47.00;;;;;;5114099;28;20038;-71
2022/11/06 13:02:42;;;;;;;1.02;0.40;;;17.00;46.90;;;;;;5117029;28;20028;-71
2022/11/06 13:05:32;;;;;;;0.55;0.50;;;17.00;46.20;;;;;;5116948;28;20030;-71
2022/11/06 13:08:16;;;;;;;0.93;0.47;;;17.00;46.00;;;;;;5117081;28;20482;-70
2022/11/06 13:11:00;;;;;;;1.13;0.60;;;17.00;46.80;;;;;;5117841;27;20031;-72
2022/11/06 15:46:11;;;;;;;2.47;0.90;;;15.20;52.70;;;;;;5112279;28;20059;-65
2022/11/06 15:48:37;;;;;;;2.33;1.10;;;15.10;53.10;;;;;;5110488;28;20036;-71
2022/11/06 15:51:20;;;;;;;1.95;1.15;;;15.10;53.50;;;;;;5100587;28;20066;-71
2022/11/06 15:53:46;;;;;;;2.63;1.25;;;15.00;53.10;;;;;;5103603;28;20047;-71
2022/11/06 15:56:15;;;;;;;1.95;1.13;;;14.90;52.90;;;;;;5112349;28;20427;-69